Time;durP1;ratioP1;P1;durP2;ratioP2;P2;SDS_P1;SDS_P2;PMS_P1;PMS_P2;Temp;Humidity;BMP_temperature;BMP_pressure;BME280_temperature;BME280_humidity;BME280_pressure;Samples;Min_cycle;Max_cycle;Signal;HPM_P1;HPM_P2
2022/01/25 00:09:17;;;;;;;21.23;15.97;;;3.70;1.00;4.50;102014.00;;;;5110125;28;20457;-83
2022/01/25 00:25:56;;;;;;;29.50;19.30;;;3.40;1.00;4.30;101985.00;;;;5109494;28;20463;-82
2022/01/25 00:28:26;;;;;;;22.20;18.63;;;3.40;1.00;4.20;101982.00;;;;5114963;28;20477;-82
2022/01/25 00:31:03;;;;;;;23.10;19.10;;;3.40;1.00;4.20;101971.00;;;;5115321;28;20453;-82
2022/01/25 00:33:34;;;;;;;21.63;17.50;;;3.30;1.00;4.10;101963.00;;;;5114340;28;20584;-79
2022/01/25 00:36:06;;;;;;;23.30;20.10;;;3.30;1.00;4.10;101994.00;;;;5114601;28;20490;-82
2022/01/25 00:38:35;;;;;;;23.10;19.63;;;3.30;1.00;4.10;101973.00;;;;5126232;27;20549;-81
2022/01/25 00:41:03;;;;;;;25.20;20.43;;;3.20;1.00;4.10;101986.00;;;;5110464;28;20477;-81
2022/01/25 00:43:32;;;;;;;24.33;19.73;;;3.10;1.00;4.00;67139.00;;;;5113425;28;20473;-80
2022/01/25 00:46:06;;;;;;;27.60;18.97;;;3.20;1.00;217.30;158370.00;;;;5109660;28;20461;-82
2022/01/25 00:48:43;;;;;;;23.47;19.23;;;3.00;1.00;217.30;158340.00;;;;5116703;28;20981;-83
2022/01/25 00:51:56;;;;;;;23.60;20.27;;;3.20;1.00;3.90;67123.00;;;;5124233;28;20457;-82
2022/01/25 00:54:25;;;;;;;23.80;19.90;;;3.10;1.00;3.90;67115.00;;;;5123991;28;20511;-85
2022/01/25 00:56:55;;;;;;;26.23;21.30;;;3.10;1.00;52.70;158344.00;;;;5125271;28;20445;-82
2022/01/25 00:59:26;;;;;;;24.30;19.17;;;3.10;1.00;3.90;67115.00;;;;5118937;27;20461;-83
2022/01/25 01:01:58;;;;;;;25.67;21.10;;;3.10;1.00;3.90;67110.00;;;;5120915;28;20449;-83
2022/01/25 01:04:30;;;;;;;20.63;18.40;;;3.10;1.00;3.90;67110.00;;;;5121252;28;20477;-82
2022/01/25 01:07:01;;;;;;;21.60;17.23;;;3.20;1.00;217.30;158318.00;;;;5131403;27;20458;-83
2022/01/25 01:09:32;;;;;;;23.33;18.53;;;3.00;1.00;3.80;67091.00;;;;5131054;28;20484;-85
2022/01/25 01:12:05;;;;;;;24.10;17.97;;;2.90;1.00;3.70;67077.00;;;;5128604;28;20441;-85
2022/01/25 01:14:56;;;;;;;23.20;18.10;;;2.90;1.00;217.30;158251.00;;;;5123829;28;20478;-85
2022/01/25 01:31:50;;;;;;;24.43;19.67;;;2.60;1.00;3.50;102133.00;;;;5048582;28;20487;-85
2022/01/25 01:34:49;;;;;;;25.33;19.70;;;2.60;1.00;3.50;102140.00;;;;5063912;28;20531;-85
2022/01/25 01:43:02;;;;;;;22.57;18.20;;;2.50;1.00;3.50;102146.00;;;;5131338;28;20465;-84
2022/01/25 01:45:43;;;;;;;25.47;19.10;;;2.30;1.00;217.30;158108.00;;;;5132508;28;20459;-82
2022/01/25 01:48:25;;;;;;;26.70;19.27;;;2.20;1.00;3.30;66961.00;;;;5150404;27;20465;-82
2022/01/25 01:51:03;;;;;;;28.50;20.20;;;2.30;1.00;3.20;102136.00;;;;5130577;28;20443;-86
2022/01/25 01:53:31;;;;;;;24.90;20.40;;;2.30;1.00;3.20;66971.00;;;;5130081;28;20460;-83
2022/01/25 01:56:00;;;;;;;24.27;19.57;;;2.30;1.00;3.20;66961.00;;;;5132903;28;20463;-84
2022/01/25 01:58:29;;;;;;;23.40;17.40;;;2.10;1.00;217.30;157993.00;;;;5131462;28;20445;-84
2022/01/25 02:00:57;;;;;;;24.77;18.80;;;2.10;1.00;3.10;66934.00;;;;5131057;28;20449;-83
2022/01/25 02:03:26;;;;;;;25.73;18.97;;;2.00;1.00;3.10;66934.00;;;;5123359;28;20508;-81
2022/01/25 02:05:56;;;;;;;25.67;18.97;;;2.00;1.00;217.30;157961.00;;;;5118788;28;20460;-82
2022/01/25 02:08:24;;;;;;;26.83;20.37;;;2.00;1.00;3.00;66912.00;;;;5146008;28;20464;-84
2022/01/25 02:10:52;;;;;;;28.77;20.50;;;2.00;1.00;3.00;66921.00;;;;5130486;28;21110;-83
2022/01/25 02:13:21;;;;;;;24.83;19.30;;;2.10;1.00;217.30;157977.00;;;;5129841;28;20488;-83
2022/01/25 02:15:50;;;;;;;25.87;19.90;;;2.10;1.00;3.00;66912.00;;;;5129113;28;20550;-83
2022/01/25 02:23:53;;;;;;;29.53;20.23;;;2.10;1.00;3.00;66918.00;;;;5126479;28;20540;-85
2022/01/25 02:26:21;;;;;;;24.10;18.47;;;1.90;1.00;3.00;66909.00;;;;5119284;28;20460;-84
2022/01/25 02:28:50;;;;;;;25.77;19.67;;;1.80;1.00;2.90;66898.00;;;;5129030;27;20473;-82
2022/01/25 02:31:18;;;;;;;25.87;18.83;;;1.80;1.00;2.90;66895.00;;;;5120851;27;20451;-82
2022/01/25 02:33:47;;;;;;;26.43;20.27;;;1.90;1.00;2.90;102094.00;;;;5123409;28;20495;-82
2022/01/25 02:36:25;;;;;;;27.73;19.83;;;1.80;1.00;217.30;157860.00;;;;5118486;28;20460;-81
2022/01/25 02:38:54;;;;;;;28.70;21.03;;;1.70;1.00;217.30;157866.00;;;;5124560;27;20575;-82
2022/01/25 02:41:23;;;;;;;26.73;19.50;;;1.60;1.00;2.80;66866.00;;;;5119935;28;20543;-83
2022/01/25 02:43:55;;;;;;;25.87;20.87;;;1.60;1.00;2.70;102095.00;;;;5119138;28;20520;-85
2022/01/25 02:49:09;;;;;;;27.60;21.60;;;1.60;1.00;52.70;157834.00;;;;5120488;28;20847;-83
2022/01/25 02:51:43;;;;;;;30.60;21.40;;;1.70;1.00;217.30;157840.00;;;;5120703;28;20445;-82
2022/01/25 02:54:14;;;;;;;27.17;20.50;;;2.00;1.00;2.60;66852.00;;;;5123762;28;20540;-84
2022/01/25 02:56:44;;;;;;;28.40;18.90;;;1.70;1.00;217.30;157803.00;;;;5125323;28;20449;-86
2022/01/25 02:59:16;;;;;;;23.83;18.40;;;1.70;1.00;2.70;66847.00;;;;5127280;28;20450;-83
2022/01/25 03:01:47;;;;;;;28.30;20.60;;;1.60;1.00;2.60;66832.00;;;;5131537;28;20607;-83
2022/01/25 03:04:18;;;;;;;26.03;18.97;;;1.50;1.00;217.30;157757.00;;;;5130151;28;20488;-82
2022/01/25 03:06:48;;;;;;;24.63;19.27;;;1.50;1.00;217.30;157767.00;;;;5125935;28;20437;-83
2022/01/25 03:09:16;;;;;;;26.90;20.30;;;1.80;1.00;2.50;66816.00;;;;5120863;28;20552;-83
2022/01/25 03:11:47;;;;;;;29.40;20.70;;;1.60;1.00;52.70;157741.00;;;;5129502;28;20464;-84
2022/01/25 03:14:18;;;;;;;31.63;22.10;;;1.40;1.00;2.40;66795.00;;;;5129961;28;20515;-85
2022/01/25 03:17:02;;;;;;;30.10;22.27;;;1.30;1.00;217.30;157731.00;;;;5143771;27;20483;-84
2022/01/25 03:19:46;;;;;;;27.70;21.73;;;1.50;1.00;2.40;66792.00;;;;5135006;28;20445;-85
2022/01/25 03:22:29;;;;;;;31.47;22.97;;;1.50;1.00;217.30;157725.00;;;;5120229;28;20457;-82
2022/01/25 03:24:58;;;;;;;27.50;20.60;;;1.40;1.00;217.30;157684.00;;;;5121349;28;20468;-82
2022/01/25 03:27:27;;;;;;;28.17;21.00;;;1.40;1.00;2.50;66807.00;;;;5117519;27;20831;-83
2022/01/25 03:29:55;;;;;;;26.30;19.93;;;1.60;1.00;217.30;157741.00;;;;5119756;28;20481;-84
2022/01/25 03:32:23;;;;;;;28.00;21.60;;;1.70;1.00;52.70;157705.00;;;;5119463;28;20465;-82
2022/01/25 03:34:51;;;;;;;32.60;21.50;;;1.50;1.00;2.40;66773.00;;;;5115637;28;20477;-84
2022/01/25 03:37:21;;;;;;;26.97;20.63;;;1.40;1.00;2.30;66767.00;;;;5131329;27;20561;-84
2022/01/25 03:39:50;;;;;;;30.70;22.30;;;1.40;1.00;52.70;157660.00;;;;5111731;28;20528;-82
2022/01/25 03:42:19;;;;;;;30.63;21.20;;;1.40;1.00;2.30;66767.00;;;;5132317;27;20450;-84
2022/01/25 03:44:49;;;;;;;27.00;20.70;;;1.40;1.00;52.70;157670.00;;;;5128847;27;20473;-83
2022/01/25 03:47:20;;;;;;;27.60;20.77;;;1.40;1.00;217.30;157660.00;;;;5130832;27;20456;-84
2022/01/25 03:49:50;;;;;;;28.90;21.17;;;1.30;1.00;2.30;66767.00;;;;5115323;28;20487;-83
2022/01/25 03:52:27;;;;;;;26.97;21.00;;;1.30;1.00;2.30;66764.00;;;;5114883;28;20463;-83
2022/01/25 03:54:56;;;;;;;26.33;20.43;;;1.50;1.00;2.30;66759.00;;;;5112731;28;20467;-83
2022/01/25 03:57:25;;;;;;;26.90;21.30;;;1.50;1.00;2.30;66767.00;;;;5128883;27;20472;-82
2022/01/25 03:59:55;;;;;;;29.63;21.30;;;1.50;1.00;2.30;66764.00;;;;5112055;28;20565;-82
2022/01/25 04:02:24;;;;;;;27.23;20.10;;;1.50;1.00;2.30;66759.00;;;;5115554;28;20446;-82
2022/01/25 04:04:52;;;;;;;26.77;19.77;;;1.40;1.00;2.30;66750.00;;;;5122469;28;20504;-83
2022/01/25 04:07:29;;;;;;;25.37;19.60;;;1.40;1.00;217.30;157599.00;;;;5130533;28;20457;-84
2022/01/25 04:09:58;;;;;;;32.97;20.80;;;1.30;1.00;2.10;66731.00;;;;5129419;28;20457;-82
2022/01/25 04:12:26;;;;;;;28.83;21.50;;;1.20;1.00;2.20;66729.00;;;;5129007;28;20910;-85
2022/01/25 04:14:54;;;;;;;27.83;21.70;;;1.30;1.00;2.10;66726.00;;;;5130560;28;20501;-85
2022/01/25 04:17:22;;;;;;;30.40;22.10;;;1.30;1.00;2.20;66739.00;;;;5131128;28;20457;-84
2022/01/25 04:20:11;;;;;;;30.83;21.47;;;1.30;1.00;2.20;66736.00;;;;5133747;28;20433;-83
2022/01/25 04:25:27;;;;;;;25.73;21.20;;;1.20;1.00;2.20;102066.00;;;;5150328;27;20802;-85
2022/01/25 04:27:56;;;;;;;28.87;21.47;;;1.20;1.00;2.10;102050.00;;;;5147963;27;20444;-85
2022/01/25 04:30:25;;;;;;;31.17;21.70;;;1.10;1.00;2.10;102071.00;;;;5150633;27;20507;-85
2022/01/25 04:32:59;;;;;;;31.37;23.57;;;1.30;1.00;217.30;157557.00;;;;5131508;28;20518;-85
2022/01/25 04:35:44;;;;;;;33.83;22.77;;;1.00;1.00;2.10;66705.00;;;;5132402;28;20492;-85
2022/01/25 04:49:30;;;;;;;26.60;20.17;;;1.00;1.00;217.30;157483.00;;;;5142118;27;20471;-83
2022/01/25 04:52:02;;;;;;;33.17;23.60;;;0.90;1.00;2.00;66688.00;;;;5120536;28;20544;-81
2022/01/25 04:54:43;;;;;;;25.97;20.53;;;0.90;1.00;52.70;157515.00;;;;5130009;28;20476;-83
2022/01/25 04:57:34;;;;;;;29.33;22.30;;;0.90;1.00;217.30;157483.00;;;;5131842;28;20443;-82
2022/01/25 05:00:09;;;;;;;29.90;21.50;;;0.90;1.00;1.90;66675.00;;;;5130233;28;20437;-83
2022/01/25 05:02:46;;;;;;;32.43;21.77;;;1.00;1.00;217.30;157505.00;;;;5130040;28;20456;-83
2022/01/25 05:05:28;;;;;;;34.50;23.50;;;1.10;1.00;2.00;66688.00;;;;5131770;28;20457;-81
2022/01/25 05:08:02;;;;;;;27.60;21.70;;;1.10;1.00;2.00;66688.00;;;;5130469;28;20500;-83
2022/01/25 05:10:37;;;;;;;30.57;22.53;;;1.00;1.00;217.30;157473.00;;;;5128604;28;20533;-82
2022/01/25 05:13:17;;;;;;;34.57;22.87;;;1.00;1.00;1.90;66683.00;;;;5127004;28;20453;-81
2022/01/25 05:16:05;;;;;;;32.40;22.07;;;0.90;1.00;1.90;66672.00;;;;5129609;28;20441;-82
2022/01/25 05:18:41;;;;;;;31.50;22.27;;;0.90;1.00;1.90;66664.00;;;;5132957;28;20461;-82
2022/01/25 05:23:56;;;;;;;30.00;22.33;;;0.80;1.00;217.30;157458.00;;;;5134184;28;20449;-81
2022/01/25 05:26:28;;;;;;;32.27;21.83;;;0.80;1.00;217.30;157438.00;;;;5137236;28;20532;-83
2022/01/25 05:28:59;;;;;;;31.63;21.47;;;0.70;1.00;1.80;66652.00;;;;5134775;28;20457;-82
2022/01/25 05:31:27;;;;;;;28.73;20.20;;;0.80;1.00;1.80;102070.00;;;;5135491;28;20540;-82
2022/01/25 05:33:56;;;;;;;28.77;21.57;;;0.80;1.00;1.80;102071.00;;;;5134841;28;20445;-82
2022/01/25 05:36:25;;;;;;;28.03;21.10;;;0.80;1.00;1.80;66648.00;;;;5134172;28;20446;-83
2022/01/25 05:38:57;;;;;;;28.53;21.17;;;0.90;1.00;1.80;102088.00;;;;5147132;27;20465;-84
2022/01/25 05:41:29;;;;;;;29.13;21.40;;;1.00;1.00;217.30;157463.00;;;;5128020;28;20440;-84
2022/01/25 05:47:04;;;;;;;31.23;22.80;;;1.10;1.00;2.00;102066.00;;;;5134848;28;20441;-85
2022/01/25 05:49:33;;;;;;;27.40;21.23;;;1.10;1.00;217.30;157505.00;;;;5130749;28;20477;-85
2022/01/25 05:52:02;;;;;;;31.00;21.97;;;0.90;1.00;1.90;66674.00;;;;5130982;28;20437;-83
2022/01/25 05:54:32;;;;;;;28.20;22.50;;;0.90;1.00;217.30;157501.00;;;;5130119;28;20531;-84
2022/01/25 05:57:01;;;;;;;32.93;23.07;;;1.00;1.00;217.30;157473.00;;;;5130093;28;20439;-83
2022/01/25 05:59:31;;;;;;;28.90;23.13;;;1.00;1.00;1.90;66664.00;;;;5139710;28;20441;-84
2022/01/25 06:01:59;;;;;;;31.87;24.40;;;1.00;1.00;217.30;157483.00;;;;5129543;28;20425;-82
2022/01/25 06:04:28;;;;;;;34.83;25.50;;;1.00;1.00;52.70;157483.00;;;;5133597;28;21438;-84
2022/01/25 06:06:56;;;;;;;35.23;26.67;;;0.90;1.00;1.90;66672.00;;;;5135510;28;20433;-84
2022/01/25 06:09:25;;;;;;;33.83;25.73;;;1.00;1.00;1.90;66672.00;;;;5152279;27;20617;-86
2022/01/25 06:11:54;;;;;;;33.73;25.77;;;1.00;1.00;1.90;66675.00;;;;5135545;28;20501;-86
2022/01/25 06:14:24;;;;;;;34.13;25.00;;;1.10;1.00;2.00;66687.00;;;;5133040;28;20479;-85
2022/01/25 06:16:53;;;;;;;30.83;23.50;;;1.00;1.00;2.00;66694.00;;;;5133366;28;20449;-85
2022/01/25 06:19:21;;;;;;;31.03;23.40;;;1.10;1.00;217.30;157553.00;;;;5134336;28;20514;-83
2022/01/25 06:21:50;;;;;;;31.60;23.67;;;1.10;1.00;52.70;157543.00;;;;5134036;28;20684;-84
2022/01/25 06:24:18;;;;;;;28.93;22.10;;;1.10;1.00;217.30;157589.00;;;;5133327;28;20485;-83
2022/01/25 06:26:46;;;;;;;29.00;23.07;;;1.20;1.00;2.30;66756.00;;;;5132312;28;20443;-82
2022/01/25 06:29:18;;;;;;;31.10;23.00;;;1.40;1.00;2.40;66767.00;;;;5130918;28;20492;-84
2022/01/25 06:31:48;;;;;;;29.13;22.57;;;1.40;1.00;217.30;157721.00;;;;5149879;27;20456;-81
2022/01/25 06:34:17;;;;;;;30.67;23.07;;;1.20;1.00;2.50;66807.00;;;;5132869;27;20478;-83
2022/01/25 06:36:46;;;;;;;32.73;23.27;;;1.60;1.00;217.30;157779.00;;;;5145460;27;20477;-84
2022/01/25 06:39:15;;;;;;;27.10;21.90;;;1.70;1.00;2.70;66847.00;;;;5132948;28;20522;-82
2022/01/25 06:41:44;;;;;;;26.40;21.00;;;1.90;1.00;217.30;157834.00;;;;5135716;28;20437;-85
2022/01/25 06:44:12;;;;;;;28.20;22.30;;;2.00;1.00;217.30;157854.00;;;;5134265;28;20505;-86
2022/01/25 06:46:41;;;;;;;29.57;21.60;;;2.10;1.00;52.70;157902.00;;;;5127709;28;20472;-86
2022/01/25 06:49:11;;;;;;;29.57;22.20;;;2.10;1.00;2.90;66888.00;;;;5135933;28;20455;-85
2022/01/25 06:51:39;;;;;;;31.23;22.67;;;2.00;1.00;52.70;157916.00;;;;5134679;28;20460;-85
2022/01/25 06:54:08;;;;;;;28.67;21.77;;;2.20;1.00;52.70;157963.00;;;;5134560;28;20464;-85
2022/01/25 06:56:36;;;;;;;26.97;20.13;;;2.20;1.00;3.00;66927.00;;;;5135268;28;20521;-85
2022/01/25 06:59:05;;;;;;;29.63;22.90;;;2.30;1.00;3.10;66947.00;;;;5134157;28;20461;-83
2022/01/25 07:01:33;;;;;;;27.83;21.23;;;2.40;1.00;217.30;158029.00;;;;5133067;28;20457;-82
2022/01/25 07:04:02;;;;;;;31.50;22.43;;;2.50;1.00;3.30;102070.00;;;;5132936;28;20490;-86
2022/01/25 07:06:31;;;;;;;27.57;21.43;;;2.60;1.00;217.30;158086.00;;;;5134471;28;20448;-85
2022/01/25 07:09:01;;;;;;;28.50;23.30;;;2.80;1.00;217.30;158102.00;;;;5148969;27;20441;-85
2022/01/25 07:11:30;;;;;;;31.50;22.97;;;2.80;1.00;217.30;158164.00;;;;5134860;28;20467;-85
2022/01/25 07:13:58;;;;;;;27.07;22.10;;;2.80;1.00;52.70;158138.00;;;;5134076;28;20508;-84
2022/01/25 07:16:26;;;;;;;25.27;21.80;;;2.70;1.00;3.50;67022.00;;;;5141636;27;20461;-82
2022/01/25 07:18:55;;;;;;;30.93;22.73;;;2.70;1.00;3.50;67040.00;;;;5130222;28;20694;-82
2022/01/25 07:21:23;;;;;;;28.80;21.77;;;2.90;1.00;3.60;102087.00;;;;5143751;27;20512;-82
2022/01/25 07:23:53;;;;;;;27.90;22.67;;;3.00;1.00;3.70;101863.00;;;;5130575;28;20484;-81
2022/01/25 07:26:21;;;;;;;27.33;21.90;;;3.10;1.00;3.80;102081.00;;;;5128373;28;20449;-81
2022/01/25 07:28:49;;;;;;;26.90;21.33;;;3.20;1.00;3.80;102090.00;;;;5136320;27;20453;-81
2022/01/25 07:31:18;;;;;;;31.73;23.50;;;3.30;1.00;3.80;102095.00;;;;5127986;28;20479;-82
2022/01/25 07:34:00;;;;;;;31.97;24.20;;;3.20;1.00;3.80;102084.00;;;;5117265;28;20487;-82
2022/01/25 07:36:30;;;;;;;30.17;23.70;;;3.00;1.00;217.30;158314.00;;;;5114193;28;20493;-82
2022/01/25 07:39:11;;;;;;;32.97;22.23;;;3.10;1.00;3.80;102076.00;;;;5133510;27;20474;-81
2022/01/25 07:41:41;;;;;;;31.00;21.47;;;3.10;1.00;3.90;102074.00;;;;5117882;28;20453;-81
2022/01/25 07:44:26;;;;;;;28.47;22.50;;;3.20;1.00;3.90;67131.00;;;;5125887;28;20468;-82
2022/01/25 07:47:02;;;;;;;27.00;21.07;;;3.30;1.00;4.00;102079.00;;;;5142641;27;20450;-81
2022/01/25 07:49:33;;;;;;;26.30;20.83;;;3.40;1.00;4.00;102077.00;;;;5126633;28;20516;-81
2022/01/25 07:52:01;;;;;;;31.67;21.50;;;3.40;1.00;4.10;67156.00;;;;5125677;28;20481;-84
2022/01/25 07:54:32;;;;;;;26.20;20.83;;;3.40;1.00;52.70;158459.00;;;;5126814;28;20477;-83
2022/01/25 07:57:01;;;;;;;27.40;22.47;;;3.50;1.00;4.10;67165.00;;;;5124841;28;20504;-86
2022/01/25 07:59:29;;;;;;;26.30;21.40;;;3.40;1.00;4.10;67170.00;;;;5143016;27;20464;-86
2022/01/25 08:01:58;;;;;;;25.47;21.43;;;3.40;1.00;4.20;67183.00;;;;5134219;27;20465;-86
2022/01/25 08:04:40;;;;;;;27.80;20.67;;;3.50;1.00;217.30;158473.00;;;;5105558;28;20540;-86
2022/01/25 08:07:12;;;;;;;29.37;22.23;;;3.50;1.00;4.20;102092.00;;;;5126135;28;20488;-85
2022/01/25 08:10:05;;;;;;;28.87;21.63;;;3.70;1.00;4.30;102109.00;;;;5047972;28;20463;-83
2022/01/25 08:12:41;;;;;;;30.40;22.40;;;3.50;1.00;4.30;102092.00;;;;5065292;28;20452;-83
2022/01/25 08:15:30;;;;;;;26.20;20.50;;;3.50;1.00;4.40;67220.00;;;;5023091;28;21368;-84
2022/01/25 08:17:58;;;;;;;29.83;21.90;;;3.50;1.00;4.50;67240.00;;;;5072722;28;20991;-84
2022/01/25 08:20:42;;;;;;;25.97;22.37;;;3.70;1.00;4.50;102087.00;;;;5053704;28;20452;-83
2022/01/25 08:23:13;;;;;;;30.93;20.60;;;3.80;1.00;4.60;67264.00;;;;5074258;28;20485;-83
2022/01/25 08:25:57;;;;;;;26.57;20.33;;;3.80;1.00;4.60;102103.00;;;;5066974;28;20533;-84
2022/01/25 08:28:32;;;;;;;23.63;18.20;;;3.80;1.00;4.60;67268.00;;;;5061508;28;20537;-82
2022/01/25 08:31:11;;;;;;;25.37;19.10;;;3.80;1.00;4.70;102122.00;;;;5060987;28;20464;-82
2022/01/25 08:34:12;;;;;;;26.20;19.00;;;3.90;1.00;4.80;102106.00;;;;4989440;28;20537;-82
2022/01/25 08:36:55;;;;;;;25.53;19.10;;;3.90;1.00;4.90;102107.00;;;;4983334;28;20454;-83
2022/01/25 08:39:56;;;;;;;22.77;18.90;;;4.10;1.00;5.00;102106.00;;;;4956302;29;20479;-84
2022/01/25 08:42:26;;;;;;;23.60;18.27;;;4.30;1.00;5.00;67365.00;;;;4957796;29;20492;-83
2022/01/25 08:45:14;;;;;;;25.47;19.67;;;4.40;1.00;5.10;102122.00;;;;4950111;29;20509;-83
2022/01/25 08:48:01;;;;;;;24.77;18.73;;;4.40;1.00;5.10;102111.00;;;;5006510;28;20463;-82
2022/01/25 08:50:30;;;;;;;28.63;20.80;;;4.50;1.00;5.20;102115.00;;;;5006167;28;20459;-84
2022/01/25 08:53:22;;;;;;;27.50;21.80;;;4.60;1.00;5.40;102112.00;;;;4955093;28;20589;-83
2022/01/25 08:56:05;;;;;;;24.40;19.47;;;4.70;1.00;5.40;102136.00;;;;5004030;28;21054;-83
2022/01/25 08:58:44;;;;;;;22.80;18.97;;;4.80;1.00;5.50;102130.00;;;;5007287;28;20536;-83
2022/01/25 09:01:13;;;;;;;21.53;19.20;;;4.90;1.00;5.60;102125.00;;;;5005663;28;20486;-84
2022/01/25 09:03:41;;;;;;;23.30;18.77;;;4.90;1.00;5.60;102122.00;;;;5007011;28;20514;-83
2022/01/25 09:06:10;;;;;;;23.23;19.30;;;5.00;1.00;5.70;102119.00;;;;5080512;28;20478;-82
2022/01/25 09:08:39;;;;;;;25.27;20.23;;;5.10;1.00;5.80;102130.00;;;;5095122;28;20450;-83
2022/01/25 09:11:08;;;;;;;24.67;19.10;;;5.20;1.00;5.90;102116.00;;;;5119606;28;20479;-84
2022/01/25 09:13:36;;;;;;;22.73;20.20;;;5.30;1.00;6.00;102110.00;;;;5129941;28;20460;-84
2022/01/25 09:16:07;;;;;;;29.07;23.30;;;5.50;1.00;6.00;102127.00;;;;5128155;28;20508;-82
2022/01/25 09:18:36;;;;;;;27.90;22.50;;;5.50;1.00;6.10;102110.00;;;;5123161;28;20466;-82
2022/01/25 09:21:04;;;;;;;25.13;19.70;;;5.70;1.00;6.30;102113.00;;;;5123390;28;20453;-81
2022/01/25 09:23:33;;;;;;;27.77;22.07;;;5.80;1.00;6.30;102118.00;;;;5122360;28;20465;-80
2022/01/25 09:26:02;;;;;;;24.47;20.23;;;5.90;1.00;6.40;102130.00;;;;5121807;28;20484;-81
2022/01/25 09:28:31;;;;;;;25.70;21.20;;;5.90;1.00;6.40;102118.00;;;;5123635;28;20587;-81
2022/01/25 09:31:01;;;;;;;23.27;19.27;;;5.80;1.00;6.40;102125.00;;;;5121971;28;20856;-80
2022/01/25 09:33:31;;;;;;;22.90;19.60;;;5.90;1.00;52.70;159443.00;;;;5123800;28;20469;-80
2022/01/25 09:36:00;;;;;;;29.73;20.97;;;5.90;1.00;6.50;102129.00;;;;5140732;27;20461;-80
2022/01/25 09:38:28;;;;;;;25.87;21.60;;;5.90;1.00;6.60;102133.00;;;;5136963;27;20540;-81
2022/01/25 09:40:57;;;;;;;26.77;22.00;;;6.10;1.00;6.70;102151.00;;;;5125699;28;20556;-81
2022/01/25 09:43:28;;;;;;;25.43;20.83;;;6.20;1.00;6.70;102139.00;;;;5126665;28;20468;-81
2022/01/25 09:45:56;;;;;;;26.57;21.30;;;6.20;1.00;6.80;67756.00;;;;5130706;28;20449;-80
2022/01/25 09:48:25;;;;;;;28.57;22.10;;;6.30;1.00;6.90;67786.00;;;;5131207;28;20464;-80
2022/01/25 09:50:59;;;;;;;27.17;20.67;;;6.40;1.00;7.10;102125.00;;;;5125760;28;20531;-81
2022/01/25 09:53:29;;;;;;;26.57;21.67;;;6.60;1.00;7.20;102145.00;;;;5127791;28;20457;-80
2022/01/25 09:56:01;;;;;;;30.87;20.17;;;6.90;1.00;7.20;102143.00;;;;5128862;27;20579;-81
2022/01/25 09:58:29;;;;;;;26.60;21.20;;;6.80;1.00;7.20;102161.00;;;;5142461;28;20472;-81
2022/01/25 10:01:02;;;;;;;28.63;21.90;;;6.70;1.00;7.20;102142.00;;;;5129531;28;20524;-80
2022/01/25 10:03:36;;;;;;;27.47;21.87;;;6.70;1.00;7.40;101979.00;;;;5128409;28;20592;-80
2022/01/25 10:06:15;;;;;;;26.13;20.97;;;6.90;1.00;7.60;67932.00;;;;5126177;28;20514;-79
2022/01/25 10:08:45;;;;;;;30.00;22.17;;;7.20;1.00;7.60;102132.00;;;;5124098;28;20468;-81
2022/01/25 10:11:16;;;;;;;23.90;19.27;;;7.20;1.00;7.50;67932.00;;;;5127030;28;20449;-80
2022/01/25 10:13:48;;;;;;;25.93;19.97;;;7.10;1.00;7.50;102143.00;;;;5124118;28;20534;-80
2022/01/25 10:16:20;;;;;;;24.57;18.87;;;6.90;1.00;7.50;102165.00;;;;5126075;28;20429;-82
2022/01/25 10:18:52;;;;;;;21.83;18.53;;;7.00;1.00;217.30;159925.00;;;;5124442;28;20456;-80
2022/01/25 10:21:26;;;;;;;25.67;19.30;;;7.00;1.00;7.70;102147.00;;;;5124123;28;20433;-81
2022/01/25 10:24:05;;;;;;;23.50;19.50;;;7.20;1.00;7.60;102152.00;;;;5121069;28;20479;-81
2022/01/25 10:26:36;;;;;;;26.03;19.53;;;7.20;1.00;217.30;159966.00;;;;5124726;28;20460;-81
2022/01/25 10:29:14;;;;;;;25.43;19.93;;;7.10;1.00;7.60;102144.00;;;;5136763;27;20463;-81
2022/01/25 10:31:45;;;;;;;23.00;18.77;;;7.30;1.00;7.60;102161.00;;;;5119100;28;20456;-81
2022/01/25 10:34:20;;;;;;;24.50;19.53;;;7.10;1.00;7.70;102145.00;;;;5120443;28;20490;-80
2022/01/25 10:36:52;;;;;;;27.00;19.37;;;7.20;1.00;7.80;102149.00;;;;5140551;28;20483;-81
2022/01/25 10:39:29;;;;;;;24.10;18.67;;;7.40;1.00;7.90;102143.00;;;;5128856;28;20459;-80
2022/01/25 10:42:05;;;;;;;25.40;18.93;;;7.50;1.00;8.00;102144.00;;;;5128961;28;20464;-81
2022/01/25 10:44:49;;;;;;;24.10;19.03;;;7.60;1.00;8.10;102141.00;;;;5126129;28;20508;-82
2022/01/25 10:47:38;;;;;;;24.80;19.70;;;7.70;1.00;8.10;102141.00;;;;5125173;28;20517;-81
2022/01/25 10:50:15;;;;;;;24.07;18.90;;;7.70;1.00;8.20;102147.00;;;;5122443;28;20457;-81
2022/01/25 10:52:46;;;;;;;20.93;18.00;;;7.80;1.00;8.20;102159.00;;;;5113641;27;20468;-80
2022/01/25 10:55:16;;;;;;;23.87;19.00;;;7.90;1.00;8.30;102140.00;;;;5114371;28;20476;-84
2022/01/25 10:57:57;;;;;;;26.10;19.53;;;7.90;1.00;8.30;102153.00;;;;5121198;28;20449;-82
2022/01/25 11:00:33;;;;;;;26.00;18.63;;;7.90;1.00;8.10;102141.00;;;;5117320;27;20460;-81
2022/01/25 11:03:04;;;;;;;21.93;18.00;;;7.80;1.00;8.10;102134.00;;;;5117133;28;20465;-80
2022/01/25 11:05:35;;;;;;;24.87;18.90;;;7.60;1.00;7.90;102144.00;;;;5117856;28;20480;-84
2022/01/25 11:08:14;;;;;;;26.00;20.17;;;7.30;1.00;7.90;102144.00;;;;5116325;27;20462;-82
2022/01/25 11:10:47;;;;;;;24.20;18.53;;;7.30;1.00;8.00;68037.00;;;;5109449;28;20453;-81
2022/01/25 11:13:34;;;;;;;29.20;19.50;;;7.50;1.00;8.10;102151.00;;;;5106773;27;20985;-81
2022/01/25 11:16:06;;;;;;;24.27;19.43;;;7.70;1.00;8.20;102139.00;;;;5130676;27;20464;-80
2022/01/25 11:18:36;;;;;;;22.97;18.50;;;7.80;1.00;8.30;102129.00;;;;5123798;27;22465;-81
2022/01/25 11:21:08;;;;;;;25.87;19.67;;;7.90;1.00;8.40;102125.00;;;;5108950;27;20469;-80
2022/01/25 11:23:42;;;;;;;25.23;18.93;;;8.00;1.00;8.40;102117.00;;;;5110595;28;20480;-82
2022/01/25 11:26:15;;;;;;;30.03;19.80;;;8.00;1.00;8.30;102119.00;;;;5109541;28;20456;-83
2022/01/25 11:28:45;;;;;;;23.23;19.03;;;7.90;1.00;8.30;68094.00;;;;5106169;28;20499;-81
2022/01/25 11:31:20;;;;;;;24.50;19.40;;;7.90;1.00;8.30;102120.00;;;;5104080;28;20449;-81
2022/01/25 11:33:51;;;;;;;28.37;19.60;;;7.90;1.00;8.30;102128.00;;;;5106421;28;21207;-81
2022/01/25 11:36:22;;;;;;;24.50;20.77;;;7.90;1.00;8.30;102126.00;;;;5105909;28;20468;-82
2022/01/25 11:38:55;;;;;;;25.10;20.30;;;7.90;1.00;8.30;102112.00;;;;5108062;28;20492;-83
2022/01/25 11:41:26;;;;;;;29.10;19.93;;;7.80;1.00;8.20;102111.00;;;;5109155;28;21036;-82
2022/01/25 11:44:09;;;;;;;25.70;19.13;;;7.70;1.00;8.20;102111.00;;;;5110886;28;20491;-83
2022/01/25 11:46:40;;;;;;;24.97;19.50;;;7.70;1.00;217.30;160230.00;;;;5108517;28;20525;-82
2022/01/25 11:49:16;;;;;;;27.47;19.60;;;7.70;1.00;8.20;102106.00;;;;5115450;28;20461;-80
2022/01/25 11:51:45;;;;;;;23.03;18.50;;;7.60;1.00;8.30;102095.00;;;;5112497;28;20449;-82
2022/01/25 11:54:15;;;;;;;26.13;19.57;;;7.70;1.00;8.30;102098.00;;;;5107053;28;20489;-82
2022/01/25 11:56:44;;;;;;;28.63;18.67;;;7.80;1.00;8.30;102112.00;;;;5105187;28;20481;-82
2022/01/25 11:59:15;;;;;;;26.27;19.07;;;7.80;1.00;8.40;102110.00;;;;5107013;28;20888;-82
2022/01/25 12:01:52;;;;;;;26.47;19.53;;;8.10;1.00;8.40;102110.00;;;;5108287;28;20488;-82
2022/01/25 12:04:20;;;;;;;28.30;20.57;;;8.00;1.00;8.40;102107.00;;;;5111606;28;20479;-82
2022/01/25 12:07:01;;;;;;;24.20;19.20;;;7.90;1.00;8.30;102098.00;;;;5117853;28;20457;-82
2022/01/25 12:09:46;;;;;;;24.43;20.20;;;7.90;1.00;8.30;68107.00;;;;5119572;28;20493;-83
2022/01/25 12:12:17;;;;;;;24.43;20.30;;;7.90;1.00;8.40;68116.00;;;;5137842;27;20441;-82
2022/01/25 12:14:49;;;;;;;33.07;20.20;;;8.00;1.00;8.40;102105.00;;;;5125004;28;20885;-85
2022/01/25 12:17:20;;;;;;;21.73;19.30;;;8.00;1.00;8.50;101947.00;;;;5128959;28;20445;-84
2022/01/25 12:19:52;;;;;;;25.43;20.03;;;8.10;1.00;8.40;102109.00;;;;5126939;28;20508;-85
2022/01/25 12:22:36;;;;;;;24.90;20.20;;;8.10;1.00;8.30;102081.00;;;;5118330;28;20529;-82
2022/01/25 12:25:14;;;;;;;24.50;19.93;;;7.90;1.00;8.30;102101.00;;;;5112064;28;20607;-81
2022/01/25 12:27:56;;;;;;;29.10;20.27;;;7.70;1.00;217.30;160234.00;;;;5122314;27;20449;-82
2022/01/25 12:30:36;;;;;;;29.60;22.10;;;7.80;1.00;8.30;102085.00;;;;5118132;28;20515;-83